Time;durP1;ratioP1;P1;durP2;ratioP2;P2;SDS_P1;SDS_P2;PMS_P1;PMS_P2;Temp;Humidity;BMP_temperature;BMP_pressure;BME280_temperature;BME280_humidity;BME280_pressure;Samples;Min_cycle;Max_cycle;Signal;HPM_P1;HPM_P2
2023/12/03 00:01:26;;;;;;;1.27;1.27;;;;;;;-3.53;76.74;98991.09;5002614;28;20042;-77
2023/12/03 00:03:51;;;;;;;1.20;1.20;;;;;;;-3.46;76.81;99002.19;4999925;28;20033;-77
2023/12/03 00:06:17;;;;;;;1.20;1.20;;;;;;;-3.46;77.01;99001.28;5003550;28;20049;-77
2023/12/03 00:08:42;;;;;;;1.20;1.20;;;;;;;-3.48;76.41;99002.84;5003658;28;20048;-77
2023/12/03 00:11:08;;;;;;;1.20;1.20;;;;;;;-3.56;75.90;99002.16;5016799;28;20049;-77
2023/12/03 00:13:33;;;;;;;1.20;1.20;;;;;;;-3.49;76.53;98998.41;5002254;28;20840;-77
2023/12/03 00:15:59;;;;;;;1.20;1.20;;;;;;;-3.57;76.89;98996.81;5004080;28;20038;-77
2023/12/03 00:18:25;;;;;;;1.20;1.20;;;;;;;-3.50;75.91;99000.09;5003751;28;20038;-77
2023/12/03 00:20:50;;;;;;;1.20;1.20;;;;;;;-3.50;76.70;98988.75;5000829;28;20042;-77
2023/12/03 00:23:16;;;;;;;1.20;1.20;;;;;;;-3.49;76.66;98991.50;5002436;28;20124;-77
2023/12/03 00:25:41;;;;;;;1.20;1.20;;;;;;;-3.41;76.42;98987.84;4997763;28;20046;-77
2023/12/03 00:28:06;;;;;;;1.20;1.20;;;;;;;-3.44;76.71;98989.31;5000067;28;20040;-77
2023/12/03 00:30:32;;;;;;;1.10;1.10;;;;;;;-3.43;76.52;98994.63;5002042;28;20823;-76
2023/12/03 00:32:57;;;;;;;1.20;1.20;;;;;;;-3.42;76.89;98999.06;5001876;28;20077;-76
2023/12/03 00:35:23;;;;;;;1.20;1.20;;;;;;;-3.53;77.52;99002.44;5000807;28;20042;-77
2023/12/03 00:37:48;;;;;;;1.20;1.20;;;;;;;-3.47;77.41;98995.16;5002613;28;20152;-77
2023/12/03 00:40:13;;;;;;;1.20;1.20;;;;;;;-3.40;76.79;98997.53;5003155;28;20065;-77
2023/12/03 00:42:39;;;;;;;1.20;1.20;;;;;;;-3.40;77.08;99002.75;5005132;28;20108;-77
2023/12/03 00:45:05;;;;;;;1.20;1.20;;;;;;;-3.31;76.58;99009.50;4985242;28;20038;-77
2023/12/03 00:47:30;;;;;;;1.20;1.20;;;;;;;-3.38;76.58;99015.91;5003203;28;20046;-77
2023/12/03 00:49:56;;;;;;;1.20;1.20;;;;;;;-3.40;76.85;99012.25;5000980;28;20049;-77
2023/12/03 00:52:21;;;;;;;1.20;1.20;;;;;;;-3.43;76.94;99015.50;5000144;28;20042;-77
2023/12/03 00:54:46;;;;;;;1.20;1.20;;;;;;;-3.29;76.23;99015.81;5004364;28;20084;-77
2023/12/03 00:57:12;;;;;;;1.20;1.20;;;;;;;-3.33;75.97;99018.91;5003477;28;20116;-76
2023/12/03 00:59:37;;;;;;;1.20;1.20;;;;;;;-3.41;76.94;99032.19;5002773;28;20169;-76
2023/12/03 01:02:03;;;;;;;1.20;1.20;;;;;;;-3.45;77.22;99037.94;5000533;28;20040;-76
2023/12/03 01:04:28;;;;;;;1.20;1.20;;;;;;;-3.27;75.76;99035.09;5003009;28;20404;-75
2023/12/03 01:06:54;;;;;;;1.20;1.20;;;;;;;-3.25;74.95;99034.47;5000538;28;20038;-78
2023/12/03 01:09:19;;;;;;;1.20;1.20;;;;;;;-3.20;75.69;99034.88;5001513;28;20037;-77
2023/12/03 01:11:45;;;;;;;1.20;1.20;;;;;;;-3.34;75.56;99030.13;5001486;28;20030;-76
2023/12/03 01:14:10;;;;;;;1.20;1.20;;;;;;;-3.28;74.71;99033.28;5016968;28;20034;-77
2023/12/03 01:16:35;;;;;;;1.20;1.20;;;;;;;-3.36;74.29;99037.81;5004780;28;20117;-77
2023/12/03 01:19:01;;;;;;;1.10;1.10;;;;;;;-3.31;73.81;99033.00;5004935;28;20069;-77
2023/12/03 01:21:26;;;;;;;1.20;1.20;;;;;;;-3.23;74.10;99040.72;4980574;28;20125;-77
2023/12/03 01:23:52;;;;;;;1.20;1.20;;;;;;;-3.39;74.79;99043.69;4999030;28;20037;-77
2023/12/03 01:26:20;;;;;;;1.20;1.20;;;;;;;-3.39;75.60;99043.69;4998089;28;20051;-77
2023/12/03 01:28:46;;;;;;;1.30;1.30;;;;;;;-3.31;75.15;99051.25;5003365;28;20033;-77
2023/12/03 01:31:11;;;;;;;1.20;1.20;;;;;;;-3.32;75.14;99054.66;4999313;28;20034;-76
2023/12/03 01:33:36;;;;;;;1.20;1.20;;;;;;;-3.28;74.91;99052.44;5002996;28;20091;-77
2023/12/03 01:36:02;;;;;;;1.15;1.15;;;;;;;-3.34;75.13;99066.66;5000461;28;20730;-77
2023/12/03 01:38:27;;;;;;;1.20;1.20;;;;;;;-3.42;75.15;99064.28;5002128;28;20049;-77
2023/12/03 01:40:53;;;;;;;1.20;1.20;;;;;;;-3.23;74.07;99068.50;5002458;28;20878;-77
2023/12/03 01:43:19;;;;;;;1.20;1.20;;;;;;;-3.23;73.45;99079.84;5002488;28;20038;-77
2023/12/03 01:45:45;;;;;;;1.20;1.20;;;;;;;-3.22;73.46;99078.16;5003277;28;20082;-77
2023/12/03 01:48:11;;;;;;;1.20;1.20;;;;;;;-3.17;73.31;99082.06;5000150;28;20045;-77
2023/12/03 01:50:39;;;;;;;1.30;1.30;;;;;;;-3.28;73.23;99077.63;4997736;28;20045;-77
2023/12/03 01:53:05;;;;;;;;;;;;;;;-3.22;72.50;99078.16;5002330;28;20538;-77
2023/12/03 01:55:30;;;;;;;1.30;1.30;;;;;;;-3.32;73.46;99083.34;5003074;28;19921;-77
2023/12/03 01:57:56;;;;;;;1.20;1.20;;;;;;;-3.24;71.74;99085.84;5003673;28;20574;-78
2023/12/03 02:00:22;;;;;;;1.20;1.20;;;;;;;-3.28;73.11;99088.97;5000744;28;20035;-77
2023/12/03 02:02:47;;;;;;;1.10;1.10;;;;;;;-3.25;73.57;99083.13;4997945;28;20075;-77
2023/12/03 02:05:13;;;;;;;1.20;1.20;;;;;;;-3.22;73.01;99086.88;4997536;28;20579;-77
2023/12/03 02:07:38;;;;;;;1.20;1.20;;;;;;;-3.30;73.82;99098.38;5002137;28;20046;-76
2023/12/03 02:10:05;;;;;;;1.20;1.20;;;;;;;-3.20;72.96;99095.78;5002611;28;20034;-76
2023/12/03 02:12:30;;;;;;;1.20;1.20;;;;;;;-3.27;73.49;99088.19;5003249;28;20052;-76
2023/12/03 02:14:56;;;;;;;1.20;1.20;;;;;;;-3.22;73.41;99094.72;4998869;28;20034;-77
2023/12/03 02:17:21;;;;;;;1.20;1.20;;;;;;;-3.19;73.38;99088.88;5000118;28;20050;-76
2023/12/03 02:19:47;;;;;;;1.20;1.20;;;;;;;-3.22;73.27;99089.50;5004285;28;20080;-76
2023/12/03 02:22:12;;;;;;;1.20;1.20;;;;;;;-3.19;73.79;99096.69;5006812;28;20030;-76
2023/12/03 02:24:38;;;;;;;1.10;1.10;;;;;;;-3.27;74.41;99101.22;5007214;28;20391;-76
2023/12/03 02:27:03;;;;;;;1.20;1.20;;;;;;;-3.21;74.78;99093.97;4988440;28;20734;-76
2023/12/03 02:29:29;;;;;;;1.20;1.20;;;;;;;-3.17;73.93;99088.22;5005162;28;20121;-76
2023/12/03 02:31:54;;;;;;;1.20;1.20;;;;;;;-3.10;73.63;99084.47;5000870;28;20045;-76
2023/12/03 02:34:19;;;;;;;1.15;1.15;;;;;;;-3.26;74.07;99086.50;5005760;28;20073;-76
2023/12/03 02:36:45;;;;;;;1.20;1.20;;;;;;;-3.23;74.62;99094.59;5005981;28;20053;-76
2023/12/03 02:39:10;;;;;;;1.20;1.20;;;;;;;-3.36;74.06;99093.50;5005112;28;20038;-76
2023/12/03 02:41:36;;;;;;;1.20;1.20;;;;;;;-3.20;73.94;99087.06;5005343;28;20494;-76
2023/12/03 02:44:01;;;;;;;1.10;1.10;;;;;;;-3.08;73.38;99090.72;5006011;28;20038;-76
2023/12/03 02:46:27;;;;;;;1.20;1.20;;;;;;;-3.15;73.32;99084.06;5003711;28;20042;-76
2023/12/03 02:48:52;;;;;;;1.10;1.10;;;;;;;-3.24;73.98;99090.16;5003678;28;20115;-76
2023/12/03 02:51:17;;;;;;;1.20;1.20;;;;;;;-3.20;74.56;99093.19;5002684;28;20481;-77
2023/12/03 02:53:45;;;;;;;1.20;1.20;;;;;;;-3.23;74.29;99089.38;5006899;28;20392;-76
2023/12/03 02:56:14;;;;;;;;;;;;;;;-3.23;74.27;99091.97;5006484;28;20657;-76
2023/12/03 02:58:40;;;;;;;1.20;1.20;;;;;;;-3.17;73.81;99087.28;5001761;28;19972;-76
2023/12/03 03:01:06;;;;;;;1.20;1.20;;;;;;;-3.23;74.00;99089.38;5006017;28;20041;-78
2023/12/03 03:03:31;;;;;;;1.20;1.20;;;;;;;-3.31;73.92;99095.59;5021026;28;20760;-78
2023/12/03 03:05:57;;;;;;;1.10;1.10;;;;;;;-3.33;74.20;99103.31;5000848;28;20050;-75
2023/12/03 03:08:22;;;;;;;1.20;1.20;;;;;;;-3.32;74.80;99097.31;5003503;28;20065;-75
2023/12/03 03:10:48;;;;;;;1.20;1.20;;;;;;;-3.35;75.27;99097.06;5003209;28;20046;-76
2023/12/03 03:13:13;;;;;;;1.20;1.20;;;;;;;-3.26;75.58;99096.91;5002170;28;20034;-76
2023/12/03 03:15:38;;;;;;;1.20;1.20;;;;;;;-3.43;75.61;99096.34;5005327;28;20242;-76
2023/12/03 03:18:04;;;;;;;1.20;1.20;;;;;;;-3.47;75.98;99098.56;5007155;28;20403;-76
2023/12/03 03:20:30;;;;;;;1.20;1.20;;;;;;;-3.46;77.12;99098.69;5003245;28;20073;-76
2023/12/03 03:22:55;;;;;;;1.20;1.20;;;;;;;-3.47;75.85;99101.16;5004341;28;20042;-76
2023/12/03 03:25:20;;;;;;;1.20;1.20;;;;;;;-3.56;76.93;99101.25;5004884;28;20061;-76
2023/12/03 03:27:46;;;;;;;1.10;1.10;;;;;;;-3.57;76.94;99104.66;5002473;28;20042;-76
2023/12/03 03:30:11;;;;;;;1.10;1.10;;;;;;;-3.48;76.62;99104.56;5001143;28;20037;-76
2023/12/03 03:32:37;;;;;;;1.10;1.10;;;;;;;-3.46;79.63;99103.91;5002353;28;20044;-78
2023/12/03 03:35:03;;;;;;;1.20;1.20;;;;;;;-3.55;76.68;99103.06;5006872;28;20148;-76
2023/12/03 03:37:28;;;;;;;1.15;1.15;;;;;;;-3.60;77.29;99109.56;5005375;28;20042;-76
2023/12/03 03:39:54;;;;;;;1.20;1.20;;;;;;;-3.62;78.12;99116.34;5001377;28;20034;-76
2023/12/03 03:42:20;;;;;;;1.20;1.20;;;;;;;-3.58;78.36;99112.34;5005679;28;20041;-76
2023/12/03 03:44:45;;;;;;;1.10;1.10;;;;;;;-3.48;77.57;99105.47;5003883;28;20041;-75
2023/12/03 03:47:12;;;;;;;1.10;1.10;;;;;;;-3.49;77.66;99116.69;5003338;28;20825;-75
2023/12/03 03:49:38;;;;;;;1.20;1.20;;;;;;;-3.41;77.57;99122.56;5003712;28;20510;-76
2023/12/03 03:52:04;;;;;;;1.20;1.20;;;;;;;-3.21;76.60;99125.28;5002865;28;20510;-77
2023/12/03 03:54:29;;;;;;;1.20;1.20;;;;;;;-3.22;76.31;99118.19;5015822;28;20042;-76
2023/12/03 03:56:55;;;;;;;1.10;1.10;;;;;;;-3.31;76.51;99117.38;5005099;28;20045;-76
2023/12/03 03:59:20;;;;;;;1.17;1.17;;;;;;;-3.41;76.27;99126.09;5004973;28;20041;-75
2023/12/03 04:01:45;;;;;;;1.20;1.20;;;;;;;-3.32;76.25;99125.09;5004341;28;20120;-77
2023/12/03 04:04:11;;;;;;;1.20;1.20;;;;;;;-3.48;77.02;99120.22;5006613;28;20048;-76
2023/12/03 04:06:44;;;;;;;1.10;1.10;;;;;;;-3.41;77.41;99126.09;5001494;28;20042;-76
2023/12/03 04:09:10;;;;;;;1.10;1.10;;;;;;;-3.31;78.34;99121.69;4998856;28;20033;-76
2023/12/03 04:11:44;;;;;;;1.20;1.20;;;;;;;-3.40;77.21;99117.50;5004604;28;20113;-76
2023/12/03 04:14:17;;;;;;;1.10;1.10;;;;;;;-3.51;77.32;99125.13;5017127;28;20054;-76
2023/12/03 04:16:43;;;;;;;1.10;1.10;;;;;;;-3.45;77.47;99125.66;5005785;28;20041;-76
2023/12/03 04:19:10;;;;;;;1.30;1.30;;;;;;;-3.48;78.52;99123.72;5000252;28;20196;-76
2023/12/03 04:21:39;;;;;;;1.02;1.02;;;;;;;-3.34;78.20;99122.34;5000482;28;20044;-78
2023/12/03 04:24:04;;;;;;;1.20;1.20;;;;;;;-3.53;76.96;99125.00;4997858;28;20455;-75
2023/12/03 04:26:30;;;;;;;1.10;1.10;;;;;;;-3.53;77.27;99129.31;5000866;28;20555;-78
2023/12/03 04:28:55;;;;;;;1.20;1.20;;;;;;;-3.61;77.90;99133.81;5003601;28;20084;-78
2023/12/03 04:31:25;;;;;;;1.10;1.10;;;;;;;-3.63;77.48;99132.78;5002850;28;20068;-75
2023/12/03 04:33:57;;;;;;;1.20;1.20;;;;;;;-3.62;77.70;99137.22;5001499;28;20100;-76
2023/12/03 04:36:24;;;;;;;1.20;1.20;;;;;;;-3.66;77.31;99132.50;5005413;28;20033;-75
2023/12/03 04:38:55;;;;;;;1.20;1.20;;;;;;;-3.57;78.21;99135.03;5001639;28;20092;-75
2023/12/03 04:41:21;;;;;;;1.20;1.20;;;;;;;-3.59;76.96;99136.56;4995166;28;20275;-76
2023/12/03 04:43:47;;;;;;;1.20;1.20;;;;;;;-3.58;76.70;99131.50;5004452;28;20065;-76
2023/12/03 04:46:12;;;;;;;1.00;1.00;;;;;;;-3.64;76.35;99143.97;5005572;28;20489;-76
2023/12/03 04:48:39;;;;;;;1.20;1.20;;;;;;;-3.67;76.34;99142.00;5002482;28;20506;-76
2023/12/03 04:51:05;;;;;;;1.20;1.20;;;;;;;-3.55;76.20;99143.88;5005083;28;20099;-76
2023/12/03 04:53:30;;;;;;;1.15;1.15;;;;;;;-3.57;76.39;99145.47;4998604;28;20042;-76
2023/12/03 04:55:56;;;;;;;1.20;1.20;;;;;;;-3.47;76.35;99146.41;5002057;28;20068;-76
2023/12/03 04:58:22;;;;;;;1.20;1.20;;;;;;;-3.26;75.05;99144.78;5004427;28;20149;-77
2023/12/03 05:00:48;;;;;;;1.20;1.20;;;;;;;-3.44;75.23;99146.69;5001878;28;20038;-77
2023/12/03 05:03:14;;;;;;;1.20;1.20;;;;;;;-3.45;75.76;99157.91;5001355;28;20045;-77
2023/12/03 05:05:41;;;;;;;1.15;1.15;;;;;;;-3.64;75.62;99157.00;5003743;28;20046;-76
2023/12/03 05:08:07;;;;;;;1.20;1.20;;;;;;;-3.70;76.38;99159.97;5001998;28;20044;-76
2023/12/03 05:10:32;;;;;;;1.20;1.20;;;;;;;-3.69;76.37;99166.09;5004251;28;20042;-76
2023/12/03 05:12:57;;;;;;;1.20;1.20;;;;;;;-3.73;76.88;99159.72;5003777;28;20819;-76
2023/12/03 05:15:26;;;;;;;1.15;1.15;;;;;;;-3.77;76.32;99164.50;5003609;28;20038;-76
2023/12/03 05:17:54;;;;;;;1.20;1.20;;;;;;;-3.89;77.10;99166.91;5003114;28;20045;-76
2023/12/03 05:20:19;;;;;;;1.20;1.20;;;;;;;-3.92;77.18;99164.03;5002124;28;20049;-76
2023/12/03 05:22:45;;;;;;;1.15;1.15;;;;;;;-3.92;76.60;99170.16;5001313;28;20054;-76
2023/12/03 05:25:10;;;;;;;1.20;1.20;;;;;;;-3.85;76.99;99161.19;4999594;28;20484;-76
2023/12/03 05:27:45;;;;;;;1.20;1.20;;;;;;;-4.02;77.63;99166.56;5001783;28;20770;-76
2023/12/03 05:30:37;;;;;;;1.20;1.20;;;;;;;-4.06;79.01;99164.44;5004718;28;20044;-76
2023/12/03 05:33:16;;;;;;;1.13;1.13;;;;;;;-4.11;79.47;99169.22;5003268;28;20362;-77
2023/12/03 05:35:42;;;;;;;1.20;1.20;;;;;;;-4.01;77.95;99166.69;5000375;28;20472;-76
2023/12/03 05:38:10;;;;;;;1.20;1.20;;;;;;;-4.08;78.69;99176.41;4997403;28;20144;-77
2023/12/03 05:40:35;;;;;;;1.20;1.20;;;;;;;-4.04;77.16;99173.31;5002516;28;20602;-76
2023/12/03 05:43:01;;;;;;;1.20;1.20;;;;;;;-4.06;77.55;99169.66;5002932;28;20137;-76
2023/12/03 05:45:27;;;;;;;1.20;1.20;;;;;;;-4.12;78.01;99180.41;4999166;28;20069;-77
2023/12/03 05:47:53;;;;;;;1.20;1.20;;;;;;;-4.17;78.29;99189.47;5001484;28;20073;-76
2023/12/03 05:50:18;;;;;;;1.20;1.20;;;;;;;-4.29;79.50;99190.97;5004302;28;20929;-77
2023/12/03 05:52:44;;;;;;;1.17;1.17;;;;;;;-4.46;80.04;99187.66;4998071;28;20060;-76
2023/12/03 05:55:10;;;;;;;1.20;1.20;;;;;;;-4.51;79.33;99190.63;5004091;28;20038;-77
2023/12/03 05:57:35;;;;;;;1.20;1.20;;;;;;;-4.62;79.54;99202.63;5003661;28;20030;-76
2023/12/03 06:00:02;;;;;;;1.25;1.25;;;;;;;-4.41;79.58;99195.91;5003630;28;20084;-76
2023/12/03 06:02:30;;;;;;;1.20;1.20;;;;;;;-4.46;79.35;99198.09;5002875;28;20045;-77
2023/12/03 06:04:55;;;;;;;1.25;1.25;;;;;;;-4.53;79.57;99193.09;5006603;28;20051;-76
2023/12/03 06:07:20;;;;;;;1.20;1.20;;;;;;;-4.46;80.86;99203.28;5007361;28;20530;-76
2023/12/03 06:09:49;;;;;;;1.20;1.20;;;;;;;-4.66;80.53;99201.41;5003915;28;20037;-76
2023/12/03 06:12:14;;;;;;;1.20;1.20;;;;;;;-4.53;80.90;99195.69;5005020;28;20030;-76
2023/12/03 06:14:40;;;;;;;1.20;1.20;;;;;;;-4.83;81.11;99205.81;5004631;28;20483;-76
2023/12/03 06:17:05;;;;;;;1.20;1.20;;;;;;;-4.80;82.44;99207.00;5006784;28;20557;-79
2023/12/03 06:19:31;;;;;;;1.20;1.20;;;;;;;-4.72;82.29;99198.22;5003141;28;20503;-78
2023/12/03 06:21:57;;;;;;;1.20;1.20;;;;;;;-4.62;81.74;99205.22;5003826;28;20242;-75
2023/12/03 06:24:27;;;;;;;1.30;1.30;;;;;;;-4.46;80.94;99208.50;5005724;28;20571;-77
2023/12/03 06:26:55;;;;;;;1.20;1.20;;;;;;;-4.60;81.08;99206.28;5004605;28;20042;-78
2023/12/03 06:29:23;;;;;;;1.20;1.20;;;;;;;-4.55;80.84;99211.94;5003155;28;20046;-79
2023/12/03 06:31:51;;;;;;;1.20;1.20;;;;;;;-4.45;80.82;99210.34;5021444;28;20846;-77
2023/12/03 06:34:17;;;;;;;1.20;1.20;;;;;;;-4.52;80.70;99205.31;5005997;28;20099;-76
2023/12/03 06:36:42;;;;;;;1.20;1.20;;;;;;;-4.62;80.89;99212.13;5004268;28;20042;-76
2023/12/03 06:39:08;;;;;;;1.20;1.20;;;;;;;-4.64;81.12;99212.00;5003660;28;20110;-76
2023/12/03 06:41:34;;;;;;;1.20;1.20;;;;;;;-4.81;81.76;99219.88;5004525;28;20057;-76
2023/12/03 06:43:59;;;;;;;1.20;1.20;;;;;;;-5.01;83.42;99221.47;5005985;28;20042;-76
2023/12/03 06:46:25;;;;;;;1.20;1.20;;;;;;;-5.23;83.81;99221.03;5001196;28;20107;-76
2023/12/03 06:48:50;;;;;;;1.20;1.20;;;;;;;-5.14;84.91;99222.72;5003743;28;20065;-78
2023/12/03 06:51:15;;;;;;;1.20;1.20;;;;;;;-5.27;84.80;99223.19;5002546;28;20061;-76
2023/12/03 06:53:41;;;;;;;1.20;1.20;;;;;;;-5.29;84.08;99222.16;5006014;28;20649;-77
2023/12/03 06:56:10;;;;;;;1.30;1.30;;;;;;;-5.26;84.25;99219.84;5006154;28;20042;-76
2023/12/03 06:58:36;;;;;;;1.20;1.20;;;;;;;-5.69;84.96;99220.81;5004492;28;20088;-76
2023/12/03 07:01:02;;;;;;;1.30;1.30;;;;;;;-5.70;85.94;99224.16;5006116;28;20121;-77
2023/12/03 07:03:37;;;;;;;1.30;1.30;;;;;;;-5.93;86.56;99224.53;5002058;28;20041;-77
2023/12/03 07:06:06;;;;;;;1.30;1.30;;;;;;;-6.16;86.80;99239.47;5003162;28;20131;-78
2023/12/03 07:08:31;;;;;;;1.20;1.20;;;;;;;-6.27;87.62;99239.31;5005679;28;20048;-77
2023/12/03 07:10:57;;;;;;;1.30;1.30;;;;;;;-5.96;87.28;99238.09;5003341;28;20042;-76
2023/12/03 07:13:22;;;;;;;1.20;1.20;;;;;;;-6.19;87.40;99242.66;5003764;28;20134;-77
2023/12/03 07:15:48;;;;;;;1.30;1.30;;;;;;;-6.15;88.18;99247.41;5005436;28;20053;-77
2023/12/03 07:18:14;;;;;;;1.30;1.30;;;;;;;-6.41;87.96;99257.75;5004881;28;20030;-75
2023/12/03 07:20:40;;;;;;;1.30;1.30;;;;;;;-6.20;87.77;99257.31;5004883;28;20034;-78
2023/12/03 07:23:05;;;;;;;1.30;1.30;;;;;;;-6.38;88.14;99259.72;4999070;28;20068;-78
2023/12/03 07:25:31;;;;;;;1.30;1.30;;;;;;;-6.38;88.23;99264.91;5003294;28;20057;-78
2023/12/03 07:27:56;;;;;;;1.30;1.30;;;;;;;-6.22;88.48;99263.13;5007149;28;20042;-78
2023/12/03 07:30:22;;;;;;;1.30;1.30;;;;;;;-6.13;88.75;99266.69;5003885;28;20450;-77
2023/12/03 07:32:48;;;;;;;1.40;1.40;;;;;;;-6.18;87.91;99273.03;5002644;28;20043;-76
2023/12/03 07:35:14;;;;;;;1.20;1.20;;;;;;;-6.17;88.42;99272.31;4989399;28;20042;-77
2023/12/03 07:37:40;;;;;;;1.30;1.30;;;;;;;-6.21;88.34;99275.34;5007141;28;20061;-78
2023/12/03 07:40:08;;;;;;;1.30;1.30;;;;;;;-6.00;88.43;99272.31;5001181;28;20483;-78
2023/12/03 07:42:33;;;;;;;1.30;1.30;;;;;;;-5.95;88.38;99273.72;5001820;28;20124;-76
2023/12/03 07:44:59;;;;;;;1.30;1.30;;;;;;;-6.02;88.56;99271.28;5000131;28;20121;-78
2023/12/03 07:47:24;;;;;;;1.30;1.30;;;;;;;-5.99;88.35;99281.97;5004210;28;20088;-77
2023/12/03 07:49:50;;;;;;;1.30;1.30;;;;;;;-6.01;88.22;99269.59;5003331;28;20117;-78
2023/12/03 07:52:15;;;;;;;1.30;1.30;;;;;;;-5.96;88.37;99279.66;5001679;28;20038;-77
2023/12/03 07:54:44;;;;;;;1.20;1.20;;;;;;;-5.95;87.81;99273.72;5001319;28;21450;-76
2023/12/03 07:57:12;;;;;;;1.30;1.30;;;;;;;-5.77;86.75;99272.03;5004898;28;20042;-78
2023/12/03 07:59:38;;;;;;;1.30;1.30;;;;;;;-5.74;86.38;99277.53;5001886;28;20071;-78
2023/12/03 08:02:03;;;;;;;1.30;1.30;;;;;;;-5.61;86.42;99271.88;5000586;28;20059;-78
2023/12/03 08:04:29;;;;;;;1.30;1.30;;;;;;;-5.49;86.04;99278.31;5001805;28;20411;-77
2023/12/03 08:06:54;;;;;;;1.30;1.30;;;;;;;-4.66;83.93;99268.19;5004779;28;20149;-77
2023/12/03 08:09:20;;;;;;;1.30;1.30;;;;;;;-4.43;80.11;99276.50;5005733;28;20065;-77
2023/12/03 08:11:45;;;;;;;1.20;1.20;;;;;;;-3.87;79.94;99265.31;5004422;28;20029;-78
2023/12/03 08:14:11;;;;;;;1.20;1.20;;;;;;;-3.39;79.29;99272.31;5000098;28;20041;-79
2023/12/03 08:16:36;;;;;;;1.15;1.15;;;;;;;-3.40;78.73;99275.72;5002544;28;20157;-78
2023/12/03 08:19:02;;;;;;;1.20;1.20;;;;;;;-3.42;79.56;99272.94;5004116;28;20484;-79
2023/12/03 08:21:27;;;;;;;1.20;1.20;;;;;;;-3.31;78.43;99270.38;5003038;28;20404;-77
2023/12/03 08:23:52;;;;;;;1.20;1.20;;;;;;;-3.02;78.28;99281.78;5004296;28;20026;-78
2023/12/03 08:26:18;;;;;;;1.10;1.10;;;;;;;-2.78;76.24;99271.69;4997144;28;20080;-77
2023/12/03 08:28:44;;;;;;;1.20;1.20;;;;;;;-2.62;76.57;99273.22;5000787;28;20061;-78
2023/12/03 08:31:10;;;;;;;1.10;1.10;;;;;;;-2.09;75.02;99276.09;5001055;28;20052;-78
2023/12/03 08:33:37;;;;;;;1.10;1.10;;;;;;;-2.24;74.31;99274.75;4999637;28;20042;-79
2023/12/03 08:36:03;;;;;;;1.20;1.20;;;;;;;-2.27;74.93;99277.09;5003786;28;20154;-78
2023/12/03 08:38:28;;;;;;;1.10;1.10;;;;;;;-2.00;73.10;99276.88;4995983;28;20124;-77
2023/12/03 08:40:54;;;;;;;1.20;1.20;;;;;;;-1.19;71.90;99275.03;5001387;28;20407;-78
2023/12/03 08:43:19;;;;;;;1.20;1.20;;;;;;;-1.00;69.20;99278.38;5001929;28;20042;-77
2023/12/03 08:45:45;;;;;;;1.10;1.10;;;;;;;-0.35;67.30;99272.31;5002375;28;20049;-77
2023/12/03 08:48:10;;;;;;;1.10;1.10;;;;;;;-0.54;66.54;99283.03;4996903;28;20069;-77
2023/12/03 08:50:37;;;;;;;1.10;1.10;;;;;;;-0.03;66.39;99272.25;5001984;28;20070;-78
2023/12/03 08:53:03;;;;;;;1.10;1.10;;;;;;;0.90;62.35;99281.16;4983725;28;20041;-77
2023/12/03 08:55:28;;;;;;;1.02;1.02;;;;;;;1.32;60.80;99276.38;4998385;28;20045;-77
2023/12/03 08:57:54;;;;;;;1.00;1.00;;;;;;;1.17;59.66;99269.19;5000009;28;20065;-78
2023/12/03 09:00:19;;;;;;;1.00;1.00;;;;;;;1.89;57.89;99260.38;5014401;28;20109;-77
2023/12/03 09:02:46;;;;;;;1.00;1.00;;;;;;;2.13;57.36;99262.09;4985423;28;20033;-77
2023/12/03 09:05:12;;;;;;;1.00;1.00;;;;;;;0.33;59.73;99269.75;5001874;28;20404;-77
2023/12/03 09:07:38;;;;;;;1.02;1.02;;;;;;;1.67;58.52;99257.91;4985340;28;20323;-78
2023/12/03 09:10:04;;;;;;;1.10;1.10;;;;;;;2.47;54.92;99260.09;4985140;28;20702;-77
2023/12/03 09:12:30;;;;;;;0.90;0.90;;;;;;;2.53;54.18;99260.50;5001897;28;20112;-78
2023/12/03 09:14:56;;;;;;;1.00;1.00;;;;;;;2.67;54.46;99269.34;4992580;28;20448;-78
2023/12/03 09:17:21;;;;;;;0.90;0.90;;;;;;;2.54;53.18;99275.53;4988285;28;20046;-77
2023/12/03 09:19:47;;;;;;;1.00;1.00;;;;;;;2.83;52.98;99279.25;4994931;28;20034;-79
2023/12/03 09:22:12;;;;;;;1.00;1.00;;;;;;;3.09;52.34;99273.09;4976872;28;20057;-78
2023/12/03 09:24:38;;;;;;;1.02;1.02;;;;;;;3.10;52.62;99282.81;5001912;28;20541;-78
2023/12/03 09:27:08;;;;;;;1.00;1.00;;;;;;;3.77;51.64;99270.50;4983992;28;20096;-77
2023/12/03 09:29:34;;;;;;;1.00;1.00;;;;;;;4.01;50.08;99264.13;5003034;28;20650;-77
2023/12/03 09:31:59;;;;;;;0.90;0.90;;;;;;;3.06;52.36;99272.88;4995397;28;20583;-77
2023/12/03 09:34:27;;;;;;;0.90;0.90;;;;;;;3.26;51.83;99264.56;4992407;28;20046;-77
2023/12/03 09:36:52;;;;;;;0.90;0.90;;;;;;;3.59;50.45;99262.28;4994627;28;20026;-77
2023/12/03 09:39:18;;;;;;;0.90;0.90;;;;;;;4.25;49.06;99263.84;4986440;28;20072;-76
2023/12/03 09:41:54;;;;;;;0.90;0.90;;;;;;;4.27;48.69;99259.59;4998050;28;20046;-78
2023/12/03 09:44:40;;;;;;;0.90;0.90;;;;;;;1.77;54.70;99269.22;4991354;28;20047;-78
2023/12/03 09:47:11;;;;;;;1.00;1.00;;;;;;;1.07;57.57;99268.41;5002859;28;20491;-79
2023/12/03 09:49:38;;;;;;;1.10;1.10;;;;;;;1.19;59.57;99269.28;4996589;28;20050;-78
2023/12/03 09:52:07;;;;;;;1.00;1.00;;;;;;;0.92;58.13;99257.66;4983490;28;20137;-77
2023/12/03 09:54:36;;;;;;;1.10;1.10;;;;;;;1.40;56.62;99265.63;4971450;28;20522;-77
2023/12/03 09:57:03;;;;;;;;;;;;;;;2.76;53.40;99253.28;4988553;28;20120;-77
2023/12/03 09:59:31;;;;;;;;;;;;;;;1.85;54.37;99258.31;4999387;28;19971;-77
2023/12/03 10:01:57;;;;;;;1.10;1.10;;;;;;;2.74;53.96;99252.28;4977756;28;21482;-77
2023/12/03 10:04:23;;;;;;;1.10;1.10;;;;;;;3.09;50.82;99242.34;4993019;28;20460;-78
2023/12/03 10:06:51;;;;;;;1.05;1.05;;;;;;;2.79;52.28;99240.31;4980832;28;20492;-77
2023/12/03 10:09:18;;;;;;;1.00;1.00;;;;;;;3.51;50.85;99237.16;4999730;28;20061;-78
2023/12/03 10:11:53;;;;;;;1.10;1.10;;;;;;;3.37;51.22;99238.91;4982119;28;20088;-77
2023/12/03 10:14:19;;;;;;;1.00;1.00;;;;;;;4.48;49.04;99230.94;5009977;28;20046;-77
2023/12/03 10:16:48;;;;;;;1.00;1.00;;;;;;;4.22;49.01;99243.47;4976811;28;20076;-77
2023/12/03 10:19:27;;;;;;;1.10;1.10;;;;;;;3.23;52.32;99245.00;4995377;28;20041;-78
2023/12/03 10:21:55;;;;;;;1.10;1.10;;;;;;;2.29;55.04;99246.56;4980293;28;20766;-77
2023/12/03 10:24:21;;;;;;;1.10;1.10;;;;;;;3.06;53.74;99238.59;4983455;28;20384;-77
2023/12/03 10:26:56;;;;;;;1.02;1.02;;;;;;;1.38;57.77;99247.91;4990074;28;20781;-77
2023/12/03 10:29:25;;;;;;;1.10;1.10;;;;;;;1.72;57.81;99246.00;4976799;28;20139;-78
2023/12/03 10:31:51;;;;;;;1.10;1.10;;;;;;;2.22;57.69;99253.94;4997211;28;20034;-77
2023/12/03 10:34:18;;;;;;;1.10;1.10;;;;;;;2.94;55.15;99248.34;4994948;28;20042;-77
2023/12/03 10:36:43;;;;;;;1.00;1.00;;;;;;;3.39;52.06;99239.00;4994383;28;20046;-77
2023/12/03 10:39:09;;;;;;;1.10;1.10;;;;;;;2.62;54.07;99246.16;4982147;28;20133;-77
2023/12/03 10:41:35;;;;;;;1.10;1.10;;;;;;;3.57;52.02;99237.56;4999909;28;20729;-78
2023/12/03 10:44:02;;;;;;;1.10;1.10;;;;;;;4.98;49.72;99228.66;4983085;28;20038;-78
2023/12/03 10:46:27;;;;;;;1.10;1.10;;;;;;;4.63;49.38;99229.22;4999098;28;20644;-77
2023/12/03 10:48:56;;;;;;;1.00;1.00;;;;;;;5.62;47.57;99226.19;4979147;28;20041;-78
2023/12/03 10:51:21;;;;;;;1.00;1.00;;;;;;;4.07;51.41;99230.22;5000602;28;20733;-79
2023/12/03 10:53:47;;;;;;;1.00;1.00;;;;;;;3.22;52.71;99238.81;4979563;28;20050;-78
2023/12/03 10:56:13;;;;;;;1.00;1.00;;;;;;;2.76;55.49;99240.09;4988395;28;20464;-78
2023/12/03 10:58:41;;;;;;;1.10;1.10;;;;;;;4.32;50.67;99232.66;4995237;28;20041;-77
2023/12/03 11:01:13;;;;;;;1.10;1.10;;;;;;;4.90;50.35;99227.31;4996076;28;20131;-78
2023/12/03 11:03:48;;;;;;;1.10;1.10;;;;;;;2.93;53.41;99225.44;4997274;28;20725;-78
2023/12/03 11:06:14;;;;;;;1.10;1.10;;;;;;;4.96;50.68;99218.81;4979151;28;20046;-78
2023/12/03 11:08:40;;;;;;;1.10;1.10;;;;;;;4.40;50.34;99213.69;5002166;28;20050;-79
2023/12/03 11:11:08;;;;;;;1.10;1.10;;;;;;;4.94;50.95;99213.47;5004000;28;20038;-79
2023/12/03 11:13:35;;;;;;;1.00;1.00;;;;;;;6.11;46.86;99206.00;5001547;28;20045;-79
2023/12/03 11:16:01;;;;;;;1.10;1.10;;;;;;;5.52;47.77;99207.97;4984082;28;20069;-79
2023/12/03 11:18:28;;;;;;;1.10;1.10;;;;;;;6.64;45.80;99204.38;4994773;28;20038;-79
2023/12/03 11:21:03;;;;;;;1.10;1.10;;;;;;;5.52;47.40;99205.31;4990683;28;20084;-79
2023/12/03 11:24:02;;;;;;;1.00;1.00;;;;;;;7.09;43.62;99202.25;4982731;28;20494;-79
2023/12/03 11:26:27;;;;;;;0.90;0.90;;;;;;;7.01;46.07;99200.97;4999262;28;20045;-79
2023/12/03 11:28:54;;;;;;;1.00;1.00;;;;;;;7.36;41.50;99190.34;4986267;28;20041;-79
2023/12/03 11:31:20;;;;;;;1.10;1.10;;;;;;;8.53;39.17;99193.16;5000827;28;20034;-79
2023/12/03 11:33:57;;;;;;;1.00;1.00;;;;;;;7.96;41.06;99194.13;4983333;28;20076;-79